Danbury, IA (51019)

6:17 AM CDT on July 23, 2016 (GMT -0500)
The Danbury Review | | Change Station
Active Advisory: Excessive Heat Warning

Elev 1162 ft 42.24 °N, 95.72 °W | Updated 2 minutes ago

Rain
Rain
78.9 °F
Feels Like 83 °F
N
3.0
Wind Variable Wind from South
Gusts 12.0 mph

Today
High -- | Low -- °F
--% Chance of Precip.
Yesterday
High -- | Low -- °F
Precip. -- in
Pressure 29.86 in
Visibility 10.0 miles
Clouds Mostly Cloudy 11000 ft
Heat Index 83 °F
Dew Point 75 °F
Humidity 87%
Rainfall 0.00 in
Snow Depth Not available.
6:07 AM 8:50 PM
Waning Gibbous, 86% visible
METAR KDNS 231055Z AUTO 24010KT 10SM BKN110 27/22 A2986 RMK AO2
Pressure 29.86 in
Visibility 10.0 miles
Clouds Mostly Cloudy 11000 ft
Heat Index 83 °F
Dew Point 75 °F
Humidity 87%
Rainfall 0.00 in
Snow Depth Not available.
6:07 AM 8:50 PM
Waning Gibbous, 86% visible
METAR KDNS 231055Z AUTO 24010KT 10SM BKN110 27/22 A2986 RMK AO2

10-Day Weather Forecast

Almanac

Astronomy

Jul. 23, 2016 Rise Set
Actual Time
Civil Twilight
Nautical Twilight
Astronomical Twilight
Moon
Length of Visible Light
Length of Day
Tomorrow will be .
, % of the Moon is Illuminated

Today's Extremes

State Highs State Lows

Community

WunderPhotos

Upload Photos

1,926,798 photos uploaded!

WunderBlog® & News

Nearby

Air Quality

  Air Quality AQ Index Pollutant
Not available.

Snow Depth

Station Depth Elevation

Earthquake Activity

City Distance Mag. Time & Date
Minimum magnitude displayed is 2.5.

Coastal Water Temperatures

Place Temperature

Stations

Nearby Weather Stations

Station Location Temp. Windchill Dew Point Humidity Wind Precip. Elev Updated Type
                   

Watches & Warnings

Excessive Heat Warning
Issued: 4:21 AM CDT Jul. 23, 2016 – National Weather Service

... Excessive heat warning remains in effect until 7 PM CDT this
evening...

* weather conditions... temperatures are expected to return to the
90s this afternoon with humidity levels still high... leading to
a peak heat index of 100 to 105 degrees. Relief is finally
expected behind a cold front Saturday night and Sunday.

Precautionary/preparedness actions...

An excessive heat warning means that a prolonged period of
dangerously hot temperatures will occur. The combination of hot
temperatures and high humidity will combine to create a dangerous
situation in which heat illnesses are likely. Drink plenty of
fluids... stay in an air-conditioned room... stay out of the sun...
and check up on relatives and neighbors.

Take extra precautions... if you work or spend time outside. When
possible... reschedule strenuous activities to early morning or
evening. Know the signs and symptoms of heat exhaustion and heat
stroke. Wear light weight and loose fitting clothing when
possible and drink plenty of water.

Young children and pets should never be left unattended in
vehicles under any circumstances. This is especially true during
warm or hot weather when car interiors can reach lethal
temperatures in a matter of minutes.